createdAt,value
2022-11-08T00:08:53.664Z,1.03
2022-11-08T00:18:58.336Z,0.80
2022-11-08T00:29:01.365Z,0.70
2022-11-08T00:39:05.601Z,0.90
2022-11-08T00:49:08.801Z,0.70
2022-11-08T00:59:14.140Z,1.00
2022-11-08T01:09:17.604Z,0.90
2022-11-08T01:19:21.808Z,0.90
2022-11-08T01:29:24.696Z,1.43
2022-11-08T01:39:32.976Z,1.07
2022-11-08T01:49:41.188Z,1.43
2022-11-08T01:59:48.771Z,1.10
2022-11-08T02:09:51.807Z,0.90
2022-11-08T02:19:56.081Z,0.90
2022-11-08T02:30:00.403Z,1.03
2022-11-08T02:40:03.489Z,1.07
2022-11-08T02:50:08.729Z,0.90
2022-11-08T03:00:13.227Z,0.90
2022-11-08T03:10:18.640Z,1.00
2022-11-08T03:20:22.495Z,2.17
2022-11-08T03:30:26.800Z,1.40
2022-11-08T03:40:29.793Z,2.00
2022-11-08T03:50:34.178Z,2.23
2022-11-08T04:00:37.437Z,2.33
2022-11-08T04:10:41.725Z,2.87
2022-11-08T04:21:04.157Z,2.37
2022-11-08T04:31:09.986Z,2.03
2022-11-08T04:41:14.683Z,1.80
2022-11-08T04:51:21.057Z,1.87
2022-11-08T05:01:26.038Z,1.50
2022-11-08T05:11:31.941Z,1.17
2022-11-08T05:21:48.872Z,1.27
2022-11-08T05:31:53.429Z,1.13
2022-11-08T05:41:56.389Z,1.00
2022-11-08T05:52:00.776Z,1.53
2022-11-08T06:02:03.970Z,1.20
2022-11-08T06:12:09.302Z,1.30
2022-11-08T06:22:12.389Z,1.17
2022-11-08T06:32:16.991Z,1.30
2022-11-08T06:42:20.299Z,1.03
2022-11-08T06:52:24.485Z,1.00
2022-11-08T07:02:27.281Z,1.00
2022-11-08T07:12:32.443Z,0.80
2022-11-08T07:22:36.017Z,1.17
2022-11-08T07:32:40.159Z,1.00
2022-11-08T07:43:10.208Z,0.67
2022-11-08T07:53:08.385Z,0.90
2022-11-08T08:03:13.412Z,1.13
2022-11-08T08:13:18.344Z,0.90
2022-11-08T08:23:21.519Z,1.10
2022-11-08T08:33:28.745Z,1.20
2022-11-08T08:43:33.373Z,0.87
2022-11-08T08:53:37.625Z,0.80
2022-11-08T09:03:40.415Z,1.33
2022-11-08T09:24:05.562Z,0.83
2022-11-08T09:34:09.861Z,0.90
2022-11-08T09:44:22.743Z,1.23
2022-11-08T09:54:32.519Z,1.10
2022-11-08T10:04:38.081Z,0.90
2022-11-08T10:14:54.643Z,0.93
2022-11-08T10:25:02.555Z,1.00
2022-11-08T10:35:18.691Z,0.90
2022-11-08T10:45:21.489Z,1.20
2022-11-08T10:55:28.355Z,1.03
2022-11-08T11:05:34.896Z,0.77
2022-11-08T11:15:41.203Z,0.70
2022-11-08T11:25:52.213Z,0.80
2022-11-08T11:35:59.517Z,0.70
2022-11-08T11:46:10.826Z,0.83
2022-11-08T11:56:43.670Z,0.90
2022-11-08T12:06:53.305Z,1.20
2022-11-08T12:17:11.317Z,1.00
2022-11-08T12:27:28.126Z,0.70
2022-11-08T12:37:51.331Z,0.80
2022-11-08T12:47:58.598Z,0.70
2022-11-08T12:58:06.302Z,0.80
2022-11-08T13:08:14.169Z,0.60
2022-11-08T13:18:34.216Z,0.70
2022-11-08T13:28:45.897Z,0.70
2022-11-08T13:39:02.077Z,0.80
2022-11-08T13:49:14.497Z,0.90
2022-11-08T13:59:59.656Z,0.70
2022-11-08T14:10:13.063Z,0.67
2022-11-08T14:20:20.371Z,0.70
2022-11-08T14:30:24.895Z,0.80
2022-11-08T14:40:30.254Z,0.80
2022-11-08T14:50:35.812Z,0.67
2022-11-08T15:00:39.035Z,0.80
2022-11-08T15:10:55.088Z,0.70
2022-11-08T15:21:01.380Z,0.60
2022-11-08T15:31:28.124Z,0.80
2022-11-08T15:41:33.937Z,0.80
2022-11-08T15:51:38.732Z,1.50
2022-11-08T16:01:48.723Z,0.73
2022-11-08T16:11:53.089Z,0.77
2022-11-08T16:21:56.232Z,0.70
2022-11-08T16:32:00.639Z,0.90
2022-11-08T16:42:04.296Z,0.80
2022-11-08T16:52:10.178Z,0.60
2022-11-08T17:02:21.389Z,0.67
2022-11-08T17:12:25.733Z,0.90
2022-11-08T17:22:28.835Z,1.10
2022-11-08T17:32:35.268Z,0.60
2022-11-08T17:42:39.640Z,0.70
2022-11-08T17:52:43.757Z,0.80
2022-11-08T18:02:46.471Z,2.03
2022-11-08T18:12:50.583Z,0.80
2022-11-08T18:22:53.327Z,1.30
2022-11-08T18:32:57.546Z,1.50
2022-11-08T18:43:00.676Z,0.80
2022-11-08T18:53:07.131Z,0.70
2022-11-08T19:03:10.233Z,0.87
2022-11-08T19:13:15.108Z,0.80
2022-11-08T19:23:18.574Z,0.70
2022-11-08T19:33:25.912Z,0.83
2022-11-08T19:43:28.967Z,1.30
2022-11-08T19:53:33.949Z,1.00
2022-11-08T20:03:38.291Z,0.73
2022-11-08T20:13:43.975Z,0.70
2022-11-08T20:23:47.730Z,0.90
2022-11-08T20:33:53.824Z,0.60
2022-11-08T20:43:57.193Z,0.60
2022-11-08T20:54:02.366Z,0.60
2022-11-08T21:04:05.650Z,0.70
2022-11-08T21:14:09.876Z,0.60
2022-11-08T21:24:13.372Z,0.47
2022-11-08T21:34:17.808Z,0.70
2022-11-08T21:44:21.088Z,0.50
2022-11-08T21:54:25.517Z,0.60
2022-11-08T22:04:28.714Z,0.50
2022-11-08T22:14:32.851Z,0.67
2022-11-08T22:24:35.788Z,0.40
2022-11-08T22:34:40.526Z,0.60
2022-11-08T22:44:43.432Z,0.60
2022-11-08T22:54:47.868Z,0.50
2022-11-08T23:04:50.987Z,0.50
2022-11-08T23:15:13.142Z,0.50
2022-11-08T23:25:16.504Z,0.60
2022-11-08T23:35:22.084Z,0.50
2022-11-08T23:45:25.336Z,0.50
2022-11-08T23:55:29.745Z,0.50
